Augusta, West Virginia
Current Conditions -  °F | °C
As of 6:00 PM on Saturday 25 Oct 2014 (Local Time) from KCBE Reporting Station
Clear Clear  
Wind Chill: 68°   Ceiling: Unl
Heat Index: 68°   Visibility: 10mi
Dew Point: 45°   Wind: 8mph
Humidity: 43%   Direction: 260°W
Pressure: 29.79"   Gusts: 21mph
Location:  39.3°N, 78.64°W
Report Text: KCBE 252200Z AUTO 26007G18KT 10SM CLR 20/07 A2979 RMK AO1
Loading
Personal Weather Stations






























Interactive Weather Map New forecast layout! Learn more

10-Day Weather Forecast

Advertisements
Track Severe Weather on mobile